createdAt,value
2019-01-09T00:00:44.768Z,6.09
2019-01-09T00:03:13.554Z,6.08
2019-01-09T00:05:42.298Z,6.08
2019-01-09T00:08:10.875Z,6.08
2019-01-09T00:10:39.449Z,6.05
2019-01-09T00:13:08.004Z,6.00
2019-01-09T00:15:36.548Z,5.95
2019-01-09T00:18:05.363Z,5.88
2019-01-09T00:20:33.923Z,5.83
2019-01-09T00:23:02.547Z,5.83
2019-01-09T00:25:31.140Z,5.84
2019-01-09T00:27:59.775Z,5.86
2019-01-09T00:30:28.378Z,5.87
2019-01-09T00:32:56.911Z,5.82
2019-01-09T00:35:25.492Z,5.78
2019-01-09T00:37:54.013Z,5.77
2019-01-09T00:40:22.636Z,5.75
2019-01-09T00:42:51.241Z,5.73
2019-01-09T00:45:20.076Z,5.70
2019-01-09T00:47:48.675Z,5.66
2019-01-09T00:50:17.283Z,5.66
2019-01-09T00:52:45.902Z,5.67
2019-01-09T00:55:14.690Z,5.69
2019-01-09T00:57:43.183Z,5.72
2019-01-09T01:00:17.903Z,5.72
2019-01-09T01:02:58.742Z,5.74
2019-01-09T01:05:54.502Z,5.76
2019-01-09T01:08:50.319Z,5.80
2019-01-09T01:11:51.733Z,5.80
2019-01-09T01:14:38.204Z,5.82
2019-01-09T01:17:36.854Z,5.79
2019-01-09T01:20:11.150Z,5.78
2019-01-09T01:22:45.815Z,5.73
2019-01-09T01:25:38.272Z,5.68
2019-01-09T01:28:26.433Z,5.64
2019-01-09T01:31:20.403Z,5.61
2019-01-09T01:34:07.093Z,5.55
2019-01-09T01:36:56.937Z,5.51
2019-01-09T01:39:46.868Z,5.48
2019-01-09T01:42:54.832Z,5.45
2019-01-09T01:45:43.731Z,5.41
2019-01-09T01:48:36.537Z,5.37
2019-01-09T01:51:20.161Z,5.35
2019-01-09T01:53:51.676Z,5.32
2019-01-09T01:56:38.240Z,5.30
2019-01-09T01:59:21.820Z,5.27
2019-01-09T02:02:09.962Z,5.26
2019-01-09T02:04:44.744Z,5.22
2019-01-09T02:07:18.811Z,5.21
2019-01-09T02:09:52.983Z,5.20
2019-01-09T02:12:45.958Z,5.17
2019-01-09T02:15:20.385Z,5.15
2019-01-09T02:17:57.491Z,5.15
2019-01-09T02:20:28.992Z,5.11
2019-01-09T02:23:09.371Z,5.10
2019-01-09T02:25:52.684Z,5.10
2019-01-09T02:28:42.539Z,5.10
2019-01-09T02:31:47.227Z,5.10
2019-01-09T02:34:15.785Z,5.10
2019-01-09T02:36:44.228Z,5.10
2019-01-09T02:39:15.445Z,5.11
2019-01-09T02:41:43.867Z,5.17
2019-01-09T02:44:12.401Z,5.18
2019-01-09T02:46:40.898Z,5.22
2019-01-09T02:49:09.671Z,5.19
2019-01-09T02:51:38.185Z,5.18
2019-01-09T02:54:06.709Z,5.15
2019-01-09T02:56:35.147Z,5.13
2019-01-09T02:59:03.837Z,5.17
2019-01-09T03:01:32.324Z,5.16
2019-01-09T03:04:00.837Z,5.15
2019-01-09T03:06:29.416Z,5.16
2019-01-09T03:08:57.926Z,5.16
2019-01-09T03:11:26.629Z,5.16
2019-01-09T03:13:55.107Z,5.16
2019-01-09T03:16:23.658Z,5.16
2019-01-09T03:18:52.079Z,5.14
2019-01-09T03:21:22.460Z,5.17
2019-01-09T03:23:50.862Z,5.22
2019-01-09T03:26:19.414Z,5.20
2019-01-09T03:28:48.155Z,5.17
2019-01-09T03:31:16.626Z,5.11
2019-01-09T03:33:45.242Z,5.10
2019-01-09T03:36:13.749Z,5.06
2019-01-09T03:38:42.404Z,5.01
2019-01-09T03:41:10.852Z,4.99
2019-01-09T03:43:39.561Z,4.98
2019-01-09T03:46:08.152Z,4.94
2019-01-09T03:48:36.694Z,4.92
2019-01-09T03:51:05.232Z,4.90
2019-01-09T03:53:33.647Z,4.87
2019-01-09T03:56:02.276Z,4.86
2019-01-09T03:58:30.847Z,4.84
2019-01-09T04:00:59.301Z,4.84
2019-01-09T04:03:27.816Z,4.81
2019-01-09T04:05:56.368Z,4.77
2019-01-09T04:08:24.845Z,4.74
2019-01-09T04:10:53.377Z,4.72
2019-01-09T04:13:22.096Z,4.70
2019-01-09T04:15:50.713Z,4.70
2019-01-09T04:18:19.278Z,4.65
2019-01-09T04:20:47.713Z,4.61
2019-01-09T04:23:16.225Z,4.56
2019-01-09T04:25:44.762Z,4.55
2019-01-09T04:28:13.336Z,4.53
2019-01-09T04:30:41.917Z,4.50
2019-01-09T04:33:10.524Z,4.48
2019-01-09T04:35:39.111Z,4.48
2019-01-09T04:38:07.550Z,4.45
2019-01-09T04:40:36.221Z,4.43
2019-01-09T04:43:04.745Z,4.43
2019-01-09T04:45:33.243Z,4.41
2019-01-09T04:48:01.799Z,4.37
2019-01-09T04:50:30.347Z,4.37
2019-01-09T04:52:58.866Z,4.35
2019-01-09T04:55:27.280Z,4.36
2019-01-09T04:57:55.961Z,4.34
2019-01-09T05:00:24.558Z,4.33
2019-01-09T05:02:53.088Z,4.32
2019-01-09T05:05:21.591Z,4.34
2019-01-09T05:07:50.107Z,4.34
2019-01-09T05:10:18.561Z,4.30
2019-01-09T05:12:46.981Z,4.26
2019-01-09T05:15:15.667Z,4.26
2019-01-09T05:17:44.117Z,4.26
2019-01-09T05:20:12.755Z,4.24
2019-01-09T05:22:41.722Z,4.24
2019-01-09T05:25:11.880Z,4.25
2019-01-09T05:27:40.378Z,4.23
2019-01-09T05:30:09.042Z,4.25
2019-01-09T05:32:37.555Z,4.27
2019-01-09T05:35:06.138Z,4.27
2019-01-09T05:37:34.692Z,4.27
2019-01-09T05:40:06.193Z,4.26
2019-01-09T05:42:34.607Z,4.25
2019-01-09T05:45:03.046Z,4.20
2019-01-09T05:47:31.470Z,4.17
2019-01-09T05:49:59.938Z,4.16
2019-01-09T05:52:28.395Z,4.13
2019-01-09T05:54:57.089Z,4.12
2019-01-09T05:57:25.487Z,4.13
2019-01-09T05:59:54.004Z,4.11
2019-01-09T06:02:22.424Z,4.10
2019-01-09T06:04:50.863Z,4.12
2019-01-09T06:07:19.394Z,4.11
2019-01-09T06:09:47.852Z,4.12
2019-01-09T06:12:16.282Z,4.10
2019-01-09T06:14:44.713Z,4.09
2019-01-09T06:17:13.175Z,4.08
2019-01-09T06:19:41.596Z,4.07
2019-01-09T06:22:10.603Z,4.06
2019-01-09T06:24:39.010Z,4.06
2019-01-09T06:27:07.455Z,4.06
2019-01-09T06:29:35.955Z,4.05
2019-01-09T06:32:04.471Z,4.03
2019-01-09T06:34:33.532Z,4.02
2019-01-09T06:37:01.985Z,4.00
2019-01-09T06:39:30.558Z,4.01
2019-01-09T06:41:59.490Z,4.00
2019-01-09T06:44:27.901Z,4.00
2019-01-09T06:46:56.599Z,4.01
2019-01-09T06:49:25.019Z,4.00
2019-01-09T06:51:53.460Z,4.00
2019-01-09T06:54:21.906Z,3.99
2019-01-09T06:56:50.383Z,3.99
2019-01-09T06:59:19.107Z,4.01
2019-01-09T07:01:47.556Z,3.98
2019-01-09T07:04:16.075Z,3.99
2019-01-09T07:06:44.498Z,3.98
2019-01-09T07:09:13.125Z,4.00
2019-01-09T07:11:41.562Z,3.98
2019-01-09T07:14:10.089Z,3.98
2019-01-09T07:16:38.587Z,3.99
2019-01-09T07:19:07.117Z,4.00
2019-01-09T07:21:35.611Z,4.02
2019-01-09T07:24:04.243Z,4.06
2019-01-09T07:26:32.745Z,4.08
2019-01-09T07:29:01.192Z,4.10
2019-01-09T07:31:29.737Z,4.14
2019-01-09T07:33:59.240Z,4.16
2019-01-09T07:36:27.789Z,4.17
2019-01-09T07:38:56.219Z,4.19
2019-01-09T07:41:24.654Z,4.19
2019-01-09T07:43:53.064Z,4.20
2019-01-09T07:46:21.503Z,4.20
2019-01-09T07:48:49.927Z,4.23
2019-01-09T07:51:18.395Z,4.24
2019-01-09T07:53:46.869Z,4.25
2019-01-09T07:56:15.329Z,4.27
2019-01-09T07:58:43.735Z,4.31
2019-01-09T08:01:12.182Z,4.32
2019-01-09T08:03:40.593Z,4.30
2019-01-09T08:06:09.212Z,4.27
2019-01-09T08:08:37.639Z,4.25
2019-01-09T08:11:06.248Z,4.24
2019-01-09T08:13:34.661Z,4.21
2019-01-09T08:16:03.169Z,4.19
2019-01-09T08:18:31.588Z,4.17
2019-01-09T08:21:05.271Z,4.17
2019-01-09T08:23:30.270Z,4.18
2019-01-09T08:25:59.230Z,4.19
2019-01-09T08:28:27.639Z,4.19
2019-01-09T08:30:56.092Z,4.20
2019-01-09T08:33:24.500Z,4.22
2019-01-09T08:35:52.955Z,4.24
2019-01-09T08:38:21.443Z,4.26
2019-01-09T08:40:50.248Z,4.25
2019-01-09T08:43:18.757Z,4.25
2019-01-09T08:45:47.278Z,4.27
2019-01-09T08:48:15.741Z,4.29
2019-01-09T08:50:44.146Z,4.29
2019-01-09T08:53:12.781Z,4.33
2019-01-09T08:55:41.300Z,4.35
2019-01-09T08:58:09.744Z,4.40
2019-01-09T09:00:38.158Z,4.48
2019-01-09T09:03:06.908Z,4.59
2019-01-09T09:05:35.344Z,4.63
2019-01-09T09:08:11.984Z,4.62
2019-01-09T09:10:34.336Z,4.61
2019-01-09T09:13:02.848Z,4.64
2019-01-09T09:15:31.295Z,4.64
2019-01-09T09:17:59.742Z,4.65
2019-01-09T09:20:28.217Z,4.65
2019-01-09T09:22:56.666Z,4.67
2019-01-09T09:25:25.072Z,4.68
2019-01-09T09:27:53.904Z,4.71
2019-01-09T09:30:22.474Z,4.73
2019-01-09T09:32:51.206Z,4.76
2019-01-09T09:35:19.770Z,4.79
2019-01-09T09:37:48.176Z,4.81
2019-01-09T09:40:19.375Z,4.83
2019-01-09T09:42:47.872Z,4.87
2019-01-09T09:45:16.546Z,4.92
2019-01-09T09:47:45.011Z,4.95
2019-01-09T09:50:15.994Z,4.99
2019-01-09T09:52:44.564Z,5.04
2019-01-09T09:55:13.406Z,5.10
2019-01-09T09:57:41.817Z,5.15
2019-01-09T10:00:13.314Z,5.19
2019-01-09T10:02:41.720Z,5.26
2019-01-09T10:05:10.323Z,5.34
2019-01-09T10:07:38.816Z,5.41
2019-01-09T10:10:10.572Z,5.47
2019-01-09T10:12:39.058Z,5.52
2019-01-09T10:15:13.323Z,5.61
2019-01-09T10:17:42.148Z,5.69
2019-01-09T10:20:15.829Z,5.86
2019-01-09T10:22:45.259Z,5.96
2019-01-09T10:25:13.849Z,5.93
2019-01-09T10:27:42.341Z,5.91
2019-01-09T10:30:14.293Z,5.93
2019-01-09T10:32:42.724Z,5.97
2019-01-09T10:35:11.462Z,6.02
2019-01-09T10:37:40.065Z,6.08
2019-01-09T10:40:11.927Z,6.17
2019-01-09T10:42:40.462Z,6.29
2019-01-09T10:45:12.093Z,6.37
2019-01-09T10:47:40.529Z,6.38
2019-01-09T10:50:12.199Z,6.54
2019-01-09T10:52:40.679Z,6.62
2019-01-09T10:55:11.244Z,6.68
2019-01-09T10:57:39.730Z,6.71
2019-01-09T11:00:11.204Z,6.74
2019-01-09T11:02:39.736Z,6.81
2019-01-09T11:05:10.329Z,6.93
2019-01-09T11:07:38.784Z,6.95
2019-01-09T11:10:10.262Z,7.07
2019-01-09T11:12:38.754Z,7.19
2019-01-09T11:15:08.919Z,7.25
2019-01-09T11:17:37.598Z,7.33
2019-01-09T11:20:09.098Z,7.47
2019-01-09T11:22:37.563Z,7.61
2019-01-09T11:25:09.058Z,7.77
2019-01-09T11:27:37.504Z,7.86
2019-01-09T11:30:08.989Z,7.94
2019-01-09T11:32:37.919Z,8.00
2019-01-09T11:35:09.538Z,7.94
2019-01-09T11:37:39.721Z,7.94
2019-01-09T11:40:10.776Z,8.12
2019-01-09T11:42:39.295Z,8.37
2019-01-09T11:45:10.847Z,8.51
2019-01-09T11:47:39.371Z,8.68
2019-01-09T11:50:10.942Z,8.91
2019-01-09T11:52:39.358Z,9.13
2019-01-09T11:55:09.937Z,9.28
2019-01-09T11:57:38.553Z,9.50
2019-01-09T12:00:10.066Z,9.50
2019-01-09T12:02:38.555Z,9.66
2019-01-09T12:05:08.456Z,9.59
2019-01-09T12:07:36.970Z,9.05
2019-01-09T12:10:11.662Z,9.05
2019-01-09T12:12:40.332Z,9.04
2019-01-09T12:15:11.247Z,9.21
2019-01-09T12:17:39.889Z,9.64
2019-01-09T12:20:11.404Z,10.01
2019-01-09T12:22:40.088Z,9.93
2019-01-09T12:25:09.973Z,10.16
2019-01-09T12:27:38.396Z,9.99
2019-01-09T12:30:21.658Z,10.19
2019-01-09T12:32:50.168Z,9.38
2019-01-09T12:35:18.714Z,9.49
2019-01-09T12:37:47.289Z,9.49
2019-01-09T12:40:16.116Z,9.14
2019-01-09T12:42:44.555Z,9.13
2019-01-09T12:45:17.363Z,9.13
2019-01-09T12:47:46.020Z,8.92
2019-01-09T12:50:20.224Z,8.75
2019-01-09T12:52:49.013Z,8.82
2019-01-09T12:55:17.518Z,8.81
2019-01-09T12:57:46.090Z,8.58
2019-01-09T13:00:20.079Z,8.46
2019-01-09T13:02:49.428Z,8.48
2019-01-09T13:05:18.183Z,8.74
2019-01-09T13:07:47.006Z,8.54
2019-01-09T13:10:15.562Z,8.41
2019-01-09T13:12:44.152Z,8.27
2019-01-09T13:15:13.032Z,8.17
2019-01-09T13:17:41.461Z,8.17
2019-01-09T13:20:12.530Z,8.18
2019-01-09T13:22:41.327Z,8.10
2019-01-09T13:25:11.175Z,7.98
2019-01-09T13:27:39.756Z,7.98
2019-01-09T13:30:13.753Z,7.91
2019-01-09T13:32:42.350Z,7.93
2019-01-09T13:35:11.345Z,7.96
2019-01-09T13:37:39.794Z,7.99
2019-01-09T13:40:14.135Z,7.92
2019-01-09T13:42:42.711Z,7.78
2019-01-09T13:45:14.189Z,8.14
2019-01-09T13:47:43.077Z,8.27
2019-01-09T13:50:14.156Z,8.18
2019-01-09T13:52:42.700Z,8.11
2019-01-09T13:55:13.147Z,8.03
2019-01-09T13:57:41.633Z,7.91
2019-01-09T14:00:21.251Z,7.81
2019-01-09T14:02:49.835Z,7.72
2019-01-09T14:05:18.551Z,7.64
2019-01-09T14:07:48.747Z,7.60
2019-01-09T14:10:19.529Z,7.58
2019-01-09T14:12:48.475Z,7.56
2019-01-09T14:15:19.711Z,7.56
2019-01-09T14:17:48.478Z,7.60
2019-01-09T14:20:17.476Z,7.61
2019-01-09T14:22:46.874Z,7.57
2019-01-09T14:25:16.890Z,7.54
2019-01-09T14:27:45.548Z,7.52
2019-01-09T14:30:21.851Z,7.48
2019-01-09T14:32:50.441Z,7.46
2019-01-09T14:35:18.956Z,7.48
2019-01-09T14:37:47.559Z,7.47
2019-01-09T14:40:18.479Z,7.46
2019-01-09T14:42:47.002Z,7.43
2019-01-09T14:45:16.902Z,7.38
2019-01-09T14:47:45.429Z,7.41
2019-01-09T14:50:19.178Z,7.38
2019-01-09T14:52:47.678Z,7.36
2019-01-09T14:55:16.476Z,7.37
2019-01-09T14:57:45.678Z,7.37
2019-01-09T15:00:20.180Z,7.34
2019-01-09T15:02:48.863Z,7.28
2019-01-09T15:05:17.634Z,7.24
2019-01-09T15:07:46.424Z,7.24
2019-01-09T15:10:19.841Z,7.14
2019-01-09T15:12:48.500Z,7.03
2019-01-09T15:15:17.961Z,6.95
2019-01-09T15:17:46.910Z,6.90
2019-01-09T15:20:17.265Z,6.88
2019-01-09T15:22:45.779Z,6.82
2019-01-09T15:25:15.349Z,6.78
2019-01-09T15:27:43.935Z,6.72
2019-01-09T15:30:20.916Z,6.69
2019-01-09T15:32:49.615Z,6.63
2019-01-09T15:35:18.047Z,6.58
2019-01-09T15:37:46.648Z,6.53
2019-01-09T15:40:20.828Z,6.50
2019-01-09T15:42:50.135Z,6.45
2019-01-09T15:45:18.691Z,6.39
2019-01-09T15:47:47.272Z,6.34
2019-01-09T15:50:24.054Z,6.28
2019-01-09T15:52:52.660Z,6.23
2019-01-09T15:55:21.866Z,6.20
2019-01-09T15:57:54.368Z,6.15
2019-01-09T16:00:28.090Z,6.12
2019-01-09T16:02:56.706Z,6.10
2019-01-09T16:05:25.868Z,6.06
2019-01-09T16:07:54.472Z,6.03
2019-01-09T16:10:24.009Z,6.02
2019-01-09T16:12:52.485Z,6.01
2019-01-09T16:15:21.076Z,5.96
2019-01-09T16:17:49.746Z,5.94
2019-01-09T16:20:19.949Z,5.92
2019-01-09T16:22:48.532Z,5.89
2019-01-09T16:25:17.054Z,5.85
2019-01-09T16:27:45.607Z,5.79
2019-01-09T16:30:34.206Z,5.75
2019-01-09T16:32:59.646Z,5.75
2019-01-09T16:35:30.956Z,5.74
2019-01-09T16:37:59.593Z,5.77
2019-01-09T16:40:28.223Z,5.82
2019-01-09T16:42:56.744Z,5.81
2019-01-09T16:45:25.265Z,5.79
2019-01-09T16:47:53.784Z,5.77
2019-01-09T16:50:23.668Z,5.77
2019-01-09T16:52:52.155Z,5.75
2019-01-09T16:55:20.759Z,5.71
2019-01-09T16:57:49.346Z,5.69
2019-01-09T17:00:20.864Z,5.68
2019-01-09T17:02:49.982Z,5.71
2019-01-09T17:05:18.937Z,5.72
2019-01-09T17:07:47.609Z,5.70
2019-01-09T17:10:17.489Z,5.66
2019-01-09T17:12:46.041Z,5.64
2019-01-09T17:15:18.757Z,5.59
2019-01-09T17:17:47.762Z,5.54
2019-01-09T17:20:19.185Z,5.54
2019-01-09T17:22:47.770Z,5.52
2019-01-09T17:25:16.359Z,5.48
2019-01-09T17:27:45.046Z,5.42
2019-01-09T17:30:19.117Z,5.43
2019-01-09T17:32:47.710Z,5.39
2019-01-09T17:35:16.194Z,5.35
2019-01-09T17:37:44.820Z,5.31
2019-01-09T17:40:16.295Z,5.28
2019-01-09T17:42:44.945Z,5.27
2019-01-09T17:45:14.134Z,5.24
2019-01-09T17:47:43.111Z,5.21
2019-01-09T17:50:23.260Z,5.19
2019-01-09T17:52:51.855Z,5.18
2019-01-09T17:55:20.382Z,5.18
2019-01-09T17:57:48.891Z,5.21
2019-01-09T18:00:20.431Z,5.19
2019-01-09T18:02:49.045Z,5.19
2019-01-09T18:05:17.897Z,5.19
2019-01-09T18:07:46.437Z,5.20
2019-01-09T18:10:23.381Z,5.18
2019-01-09T18:12:51.929Z,5.15
2019-01-09T18:15:22.403Z,5.17
2019-01-09T18:17:51.200Z,5.16
2019-01-09T18:20:21.721Z,5.16
2019-01-09T18:22:50.597Z,5.17
2019-01-09T18:25:21.496Z,5.18
2019-01-09T18:27:50.019Z,5.17
2019-01-09T18:30:21.479Z,5.16
2019-01-09T18:32:52.945Z,5.15
2019-01-09T18:35:33.411Z,5.15
2019-01-09T18:38:32.420Z,5.14
2019-01-09T18:41:24.569Z,5.14
2019-01-09T18:43:58.924Z,5.15
2019-01-09T18:46:53.188Z,5.17
2019-01-09T18:49:42.955Z,5.17
2019-01-09T18:52:17.284Z,5.16
2019-01-09T18:54:45.849Z,5.15
2019-01-09T18:57:14.351Z,5.14
2019-01-09T18:59:42.938Z,5.13
2019-01-09T19:02:11.733Z,5.14
2019-01-09T19:04:40.581Z,5.15
2019-01-09T19:07:09.259Z,5.14
2019-01-09T19:09:37.766Z,5.13
2019-01-09T19:12:06.700Z,5.11
2019-01-09T19:14:35.793Z,5.08
2019-01-09T19:17:05.018Z,5.06
2019-01-09T19:19:34.140Z,5.06
2019-01-09T19:22:02.763Z,5.06
2019-01-09T19:24:31.320Z,5.04
2019-01-09T19:26:59.952Z,5.01
2019-01-09T19:29:28.522Z,5.00
2019-01-09T19:31:57.153Z,4.99
2019-01-09T19:34:25.732Z,4.97
2019-01-09T19:36:54.172Z,4.95
2019-01-09T19:39:22.791Z,4.94
2019-01-09T19:41:51.280Z,4.93
2019-01-09T19:44:19.863Z,4.94
2019-01-09T19:46:48.422Z,4.93
2019-01-09T19:49:17.059Z,4.92
2019-01-09T19:51:45.852Z,4.93
2019-01-09T19:54:14.550Z,4.93
2019-01-09T19:56:43.097Z,4.94
2019-01-09T19:59:11.770Z,4.89
2019-01-09T20:01:40.273Z,4.88
2019-01-09T20:04:08.887Z,4.91
2019-01-09T20:06:37.478Z,4.86
2019-01-09T20:09:08.373Z,4.87
2019-01-09T20:11:37.067Z,4.84
2019-01-09T20:14:05.860Z,4.85
2019-01-09T20:16:34.439Z,4.86
2019-01-09T20:19:03.137Z,4.88
2019-01-09T20:21:31.776Z,4.89
2019-01-09T20:24:00.575Z,4.87
2019-01-09T20:26:29.049Z,4.87
2019-01-09T20:28:57.581Z,4.89
2019-01-09T20:31:26.217Z,4.91
2019-01-09T20:33:54.899Z,4.90
2019-01-09T20:36:23.651Z,4.91
2019-01-09T20:38:52.408Z,4.95
2019-01-09T20:41:21.133Z,4.94
2019-01-09T20:43:49.659Z,4.93
2019-01-09T20:46:18.249Z,4.89
2019-01-09T20:48:46.762Z,4.85
2019-01-09T20:51:15.490Z,4.83
2019-01-09T20:53:44.157Z,4.81
2019-01-09T20:56:12.901Z,4.81
2019-01-09T20:58:42.507Z,4.79
2019-01-09T21:01:11.476Z,4.77
2019-01-09T21:03:40.198Z,4.75
2019-01-09T21:06:09.136Z,4.71
2019-01-09T21:08:37.662Z,4.66
2019-01-09T21:11:06.296Z,4.63
2019-01-09T21:13:34.820Z,4.61
2019-01-09T21:16:03.635Z,4.58
2019-01-09T21:18:32.184Z,4.58
2019-01-09T21:21:00.773Z,4.58
2019-01-09T21:23:29.442Z,4.56
2019-01-09T21:25:59.744Z,4.54
2019-01-09T21:28:28.412Z,4.53
2019-01-09T21:30:56.901Z,4.51
2019-01-09T21:33:25.506Z,4.48
2019-01-09T21:35:54.085Z,4.46
2019-01-09T21:38:22.623Z,4.46
2019-01-09T21:40:52.776Z,4.45
2019-01-09T21:43:21.392Z,4.45
2019-01-09T21:45:49.921Z,4.39
2019-01-09T21:48:18.368Z,4.35
2019-01-09T21:50:46.986Z,4.33
2019-01-09T21:53:17.158Z,4.30
2019-01-09T21:55:45.977Z,4.28
2019-01-09T21:58:16.044Z,4.25
2019-01-09T22:00:44.723Z,4.23
2019-01-09T22:03:13.388Z,4.18
2019-01-09T22:05:41.980Z,4.15
2019-01-09T22:08:10.570Z,4.09
2019-01-09T22:10:39.266Z,4.08
2019-01-09T22:13:07.872Z,4.05
2019-01-09T22:15:36.676Z,4.02
2019-01-09T22:18:05.449Z,4.01
2019-01-09T22:20:33.965Z,4.01
2019-01-09T22:23:02.710Z,4.02
2019-01-09T22:25:31.253Z,4.00
2019-01-09T22:27:59.826Z,3.99
2019-01-09T22:30:28.982Z,3.94
2019-01-09T22:32:57.711Z,3.92
2019-01-09T22:35:26.253Z,3.92
2019-01-09T22:37:54.747Z,3.96
2019-01-09T22:40:23.560Z,4.01
2019-01-09T22:42:52.235Z,4.04
2019-01-09T22:45:20.964Z,4.03
2019-01-09T22:47:49.541Z,4.05
2019-01-09T22:50:20.169Z,4.08
2019-01-09T22:52:48.844Z,4.07
2019-01-09T22:55:17.324Z,4.06
2019-01-09T22:57:46.018Z,4.05
2019-01-09T23:00:37.613Z,4.07
2019-01-09T23:03:09.688Z,4.08
2019-01-09T23:05:38.558Z,4.07
2019-01-09T23:08:07.224Z,4.07
2019-01-09T23:10:36.270Z,4.05
2019-01-09T23:13:05.162Z,4.01
2019-01-09T23:15:34.120Z,3.93
2019-01-09T23:18:02.843Z,3.89
2019-01-09T23:20:31.440Z,3.89
2019-01-09T23:23:00.007Z,3.91
2019-01-09T23:25:28.594Z,3.91
2019-01-09T23:27:57.114Z,3.95
2019-01-09T23:30:25.812Z,3.99
2019-01-09T23:32:54.427Z,4.03
2019-01-09T23:35:22.967Z,4.07
2019-01-09T23:37:51.562Z,4.09
2019-01-09T23:40:20.118Z,4.10
2019-01-09T23:42:49.187Z,4.07
2019-01-09T23:45:17.848Z,4.02
2019-01-09T23:47:46.479Z,4.01
2019-01-09T23:50:15.190Z,4.00
2019-01-09T23:52:46.579Z,3.96
2019-01-09T23:55:15.181Z,3.92
2019-01-09T23:57:43.727Z,3.90
